sensor_id;sensor_type;location;lat;lon;timestamp;pressure;altitude;pressure_sealevel;temperature;humidity
76994;BME280;66749;47.406;18.822;2023-04-01T00:00:27;99053.63;;;10.27;83.81
76994;BME280;66749;47.406;18.822;2023-04-01T00:00:59;99048.53;;;10.25;84.01
76994;BME280;66749;47.406;18.822;2023-04-01T00:01:30;99049.34;;;10.26;83.82
76994;BME280;66749;47.406;18.822;2023-04-01T00:02:01;99045.91;;;10.25;83.88
76994;BME280;66749;47.406;18.822;2023-04-01T00:02:32;99047.56;;;10.26;83.56
76994;BME280;66749;47.406;18.822;2023-04-01T00:03:03;99048.53;;;10.25;83.71
76994;BME280;66749;47.406;18.822;2023-04-01T00:03:34;99047.81;;;10.23;83.56
76994;BME280;66749;47.406;18.822;2023-04-01T00:04:05;99051.38;;;10.22;83.85
76994;BME280;66749;47.406;18.822;2023-04-01T00:04:36;99044.00;;;10.16;84.31
76994;BME280;66749;47.406;18.822;2023-04-01T00:05:06;99048.38;;;10.16;84.73
76994;BME280;66749;47.406;18.822;2023-04-01T00:05:37;99041.50;;;10.15;84.59
76994;BME280;66749;47.406;18.822;2023-04-01T00:06:10;99036.50;;;10.12;84.69
76994;BME280;66749;47.406;18.822;2023-04-01T00:06:42;99034.84;;;10.11;84.73
76994;BME280;66749;47.406;18.822;2023-04-01T00:07:12;99039.25;;;10.10;84.53
76994;BME280;66749;47.406;18.822;2023-04-01T00:07:43;99040.06;;;10.11;84.41
76994;BME280;66749;47.406;18.822;2023-04-01T00:08:14;99033.91;;;10.12;84.44
76994;BME280;66749;47.406;18.822;2023-04-01T00:08:45;99037.47;;;10.11;84.63
76994;BME280;66749;47.406;18.822;2023-04-01T00:09:16;99042.47;;;10.14;84.41
76994;BME280;66749;47.406;18.822;2023-04-01T00:09:47;99035.94;;;10.08;84.73
76994;BME280;66749;47.406;18.822;2023-04-01T00:10:17;99035.69;;;10.11;84.66
76994;BME280;66749;47.406;18.822;2023-04-01T00:10:48;99038.28;;;10.11;84.47
76994;BME280;66749;47.406;18.822;2023-04-01T00:11:19;99039.59;;;10.06;84.62
76994;BME280;66749;47.406;18.822;2023-04-01T00:11:49;99031.66;;;10.07;84.74
76994;BME280;66749;47.406;18.822;2023-04-01T00:12:20;99037.69;;;10.08;84.78
76994;BME280;66749;47.406;18.822;2023-04-01T00:12:50;99038.78;;;10.05;84.64
76994;BME280;66749;47.406;18.822;2023-04-01T00:13:21;99039.81;;;10.02;84.94
76994;BME280;66749;47.406;18.822;2023-04-01T00:13:52;99037.91;;;10.05;84.90
76994;BME280;66749;47.406;18.822;2023-04-01T00:14:22;99039.69;;;10.04;85.04
76994;BME280;66749;47.406;18.822;2023-04-01T00:14:53;99039.00;;;10.02;84.67
76994;BME280;66749;47.406;18.822;2023-04-01T00:15:23;99041.72;;;10.00;84.86
76994;BME280;66749;47.406;18.822;2023-04-01T00:15:55;99035.56;;;10.01;84.73
76994;BME280;66749;47.406;18.822;2023-04-01T00:16:26;99035.31;;;10.05;84.91
76994;BME280;66749;47.406;18.822;2023-04-01T00:16:56;99032.72;;;10.05;84.90
76994;BME280;66749;47.406;18.822;2023-04-01T00:17:27;99028.69;;;10.00;85.08
76994;BME280;66749;47.406;18.822;2023-04-01T00:17:58;99027.03;;;9.99;85.11
76994;BME280;66749;47.406;18.822;2023-04-01T00:18:29;99033.06;;;10.00;85.09
76994;BME280;66749;47.406;18.822;2023-04-01T00:19:00;99030.59;;;9.98;85.15
76994;BME280;66749;47.406;18.822;2023-04-01T00:19:31;99037.56;;;9.98;84.93
76994;BME280;66749;47.406;18.822;2023-04-01T00:20:04;99035.81;;;9.98;85.03
76994;BME280;66749;47.406;18.822;2023-04-01T00:20:35;99036.00;;;9.95;85.01
76994;BME280;66749;47.406;18.822;2023-04-01T00:21:06;99035.31;;;9.93;85.12
76994;BME280;66749;47.406;18.822;2023-04-01T00:21:37;99029.16;;;9.94;85.25
76994;BME280;66749;47.406;18.822;2023-04-01T00:22:07;99032.09;;;9.90;85.25
76994;BME280;66749;47.406;18.822;2023-04-01T00:22:41;99033.78;;;9.91;85.56
76994;BME280;66749;47.406;18.822;2023-04-01T00:23:13;99029.38;;;9.91;85.49
76994;BME280;66749;47.406;18.822;2023-04-01T00:23:44;99032.00;;;9.91;85.64
76994;BME280;66749;47.406;18.822;2023-04-01T00:24:14;99037.91;;;9.93;85.35
76994;BME280;66749;47.406;18.822;2023-04-01T00:24:45;99033.66;;;9.92;85.65
76994;BME280;66749;47.406;18.822;2023-04-01T00:25:16;99034.34;;;9.94;85.64
76994;BME280;66749;47.406;18.822;2023-04-01T00:25:47;99031.75;;;9.94;85.32
76994;BME280;66749;47.406;18.822;2023-04-01T00:26:18;99025.59;;;9.95;85.51
76994;BME280;66749;47.406;18.822;2023-04-01T00:26:51;99028.06;;;9.97;85.36
76994;BME280;66749;47.406;18.822;2023-04-01T00:27:21;99027.25;;;9.96;85.24
76994;BME280;66749;47.406;18.822;2023-04-01T00:27:52;99034.16;;;9.97;85.35
76994;BME280;66749;47.406;18.822;2023-04-01T00:28:22;99031.53;;;9.97;85.10
76994;BME280;66749;47.406;18.822;2023-04-01T00:28:53;99026.31;;;9.97;85.09
76994;BME280;66749;47.406;18.822;2023-04-01T00:29:24;99028.06;;;9.97;85.08
76994;BME280;66749;47.406;18.822;2023-04-01T00:29:58;99028.81;;;9.99;85.07
76994;BME280;66749;47.406;18.822;2023-04-01T00:30:29;99023.47;;;10.00;85.00
76994;BME280;66749;47.406;18.822;2023-04-01T00:31:05;99028.06;;;9.97;85.10
76994;BME280;66749;47.406;18.822;2023-04-01T00:31:36;99032.25;;;9.99;85.05
76994;BME280;66749;47.406;18.822;2023-04-01T00:32:07;99026.19;;;9.99;85.21
76994;BME280;66749;47.406;18.822;2023-04-01T00:32:37;99023.81;;;9.96;85.58
76994;BME280;66749;47.406;18.822;2023-04-01T00:33:08;99026.31;;;9.97;85.09
76994;BME280;66749;47.406;18.822;2023-04-01T00:33:39;99017.66;;;9.97;85.71
76994;BME280;66749;47.406;18.822;2023-04-01T00:34:11;99021.56;;;10.02;85.51
76994;BME280;66749;47.406;18.822;2023-04-01T00:34:42;99024.19;;;10.02;85.37
76994;BME280;66749;47.406;18.822;2023-04-01T00:35:14;99024.19;;;10.02;85.31
76994;BME280;66749;47.406;18.822;2023-04-01T00:35:45;99024.31;;;10.01;85.35
76994;BME280;66749;47.406;18.822;2023-04-01T00:36:19;99014.13;;;9.98;85.29
76994;BME280;66749;47.406;18.822;2023-04-01T00:36:52;99021.13;;;9.97;85.36
76994;BME280;66749;47.406;18.822;2023-04-01T00:37:23;99023.59;;;9.99;85.37
76994;BME280;66749;47.406;18.822;2023-04-01T00:37:53;99019.34;;;9.98;85.40
76994;BME280;66749;47.406;18.822;2023-04-01T00:38:25;99022.66;;;10.00;85.44
76994;BME280;66749;47.406;18.822;2023-04-01T00:38:57;99024.31;;;10.01;85.67
76994;BME280;66749;47.406;18.822;2023-04-01T00:39:30;99020.16;;;9.98;85.68
76994;BME280;66749;47.406;18.822;2023-04-01T00:40:01;99024.31;;;10.01;85.67
76994;BME280;66749;47.406;18.822;2023-04-01T00:40:35;99028.69;;;10.00;85.76
76994;BME280;66749;47.406;18.822;2023-04-01T00:41:06;99020.88;;;10.00;85.42
76994;BME280;66749;47.406;18.822;2023-04-01T00:41:37;99022.66;;;10.00;85.37
76994;BME280;66749;47.406;18.822;2023-04-01T00:42:09;99026.31;;;9.97;85.45
76994;BME280;66749;47.406;18.822;2023-04-01T00:42:40;99017.66;;;9.97;85.48
76994;BME280;66749;47.406;18.822;2023-04-01T00:43:16;99021.56;;;10.02;85.11
76994;BME280;66749;47.406;18.822;2023-04-01T00:43:51;99022.53;;;10.01;85.21
76994;BME280;66749;47.406;18.822;2023-04-01T00:44:24;99023.47;;;10.00;85.23
76994;BME280;66749;47.406;18.822;2023-04-01T00:44:56;99028.06;;;9.97;85.83
76994;BME280;66749;47.406;18.822;2023-04-01T00:45:34;99026.31;;;9.97;85.91
76994;BME280;66749;47.406;18.822;2023-04-01T00:46:05;99021.44;;;9.93;86.10
76994;BME280;66749;47.406;18.822;2023-04-01T00:46:36;99030.78;;;9.95;85.88
76994;BME280;66749;47.406;18.822;2023-04-01T00:47:07;99023.94;;;9.94;85.91
76994;BME280;66749;47.406;18.822;2023-04-01T00:47:37;99022.97;;;9.95;86.12
76994;BME280;66749;47.406;18.822;2023-04-01T00:48:16;99028.94;;;9.97;86.44
76994;BME280;66749;47.406;18.822;2023-04-01T00:48:54;99030.78;;;9.95;86.04
76994;BME280;66749;47.406;18.822;2023-04-01T00:49:30;99031.63;;;9.96;86.40
76994;BME280;66749;47.406;18.822;2023-04-01T00:50:02;99031.75;;;9.94;86.54
76994;BME280;66749;47.406;18.822;2023-04-01T00:50:34;99033.53;;;9.94;86.11
76994;BME280;66749;47.406;18.822;2023-04-01T00:51:09;99030.09;;;9.93;86.14
76994;BME280;66749;47.406;18.822;2023-04-01T00:51:42;99026.53;;;9.94;86.17
76994;BME280;66749;47.406;18.822;2023-04-01T00:52:21;99029.16;;;9.94;86.30
76994;BME280;66749;47.406;18.822;2023-04-01T00:52:53;99027.38;;;9.95;85.86
76994;BME280;66749;47.406;18.822;2023-04-01T00:53:24;99025.59;;;9.95;86.13
76994;BME280;66749;47.406;18.822;2023-04-01T00:53:56;99024.63;;;9.96;85.83
76994;BME280;66749;47.406;18.822;2023-04-01T00:54:30;99027.16;;;9.98;86.05
76994;BME280;66749;47.406;18.822;2023-04-01T00:55:04;99027.25;;;9.96;85.75
76994;BME280;66749;47.406;18.822;2023-04-01T00:55:42;99025.59;;;9.95;85.96
76994;BME280;66749;47.406;18.822;2023-04-01T00:56:52;99027.50;;;9.93;85.97
76994;BME280;66749;47.406;18.822;2023-04-01T00:57:31;99032.47;;;9.96;85.75
76994;BME280;66749;47.406;18.822;2023-04-01T00:58:08;99027.25;;;9.96;85.65
76994;BME280;66749;47.406;18.822;2023-04-01T00:58:45;99034.03;;;9.99;85.82
76994;BME280;66749;47.406;18.822;2023-04-01T00:59:26;99031.53;;;9.97;85.98
76994;BME280;66749;47.406;18.822;2023-04-01T00:59:57;99032.38;;;9.98;85.63
76994;BME280;66749;47.406;18.822;2023-04-01T01:00:29;99034.97;;;9.98;85.78
76994;BME280;66749;47.406;18.822;2023-04-01T01:01:01;99035.69;;;10.00;85.67
76994;BME280;66749;47.406;18.822;2023-04-01T01:01:34;99034.16;;;9.97;85.54
76994;BME280;66749;47.406;18.822;2023-04-01T01:02:10;99031.53;;;9.97;85.74
76994;BME280;66749;47.406;18.822;2023-04-01T01:02:42;99035.88;;;9.97;85.86
76994;BME280;66749;47.406;18.822;2023-04-01T01:03:14;99034.03;;;9.99;85.30
76994;BME280;66749;47.406;18.822;2023-04-01T01:03:45;99037.91;;;9.93;85.64
76994;BME280;66749;47.406;18.822;2023-04-01T01:04:25;99038.75;;;9.94;86.03
76994;BME280;66749;47.406;18.822;2023-04-01T01:04:56;99034.59;;;9.91;85.95
76994;BME280;66749;47.406;18.822;2023-04-01T01:08:28;99042.88;;;9.85;86.48
76994;BME280;66749;47.406;18.822;2023-04-01T01:10:28;99034.69;;;9.90;86.33
76994;BME280;66749;47.406;18.822;2023-04-01T01:11:01;99033.88;;;9.89;86.55
76994;BME280;66749;47.406;18.822;2023-04-01T01:11:43;99031.25;;;9.89;86.56
76994;BME280;66749;47.406;18.822;2023-04-01T01:12:22;99028.66;;;9.89;86.53
76994;BME280;66749;47.406;18.822;2023-04-01T01:13:53;99025.34;;;9.87;86.73
76994;BME280;66749;47.406;18.822;2023-04-01T01:14:55;99028.88;;;9.86;86.86
76994;BME280;66749;47.406;18.822;2023-04-01T01:16:27;99027.94;;;9.87;86.73
76994;BME280;66749;47.406;18.822;2023-04-01T01:20:41;99021.78;;;9.88;86.83
76994;BME280;66749;47.406;18.822;2023-04-01T01:22:52;99032.44;;;9.85;86.70
76994;BME280;66749;47.406;18.822;2023-04-01T01:26:52;99033.78;;;9.91;86.08
76994;BME280;66749;47.406;18.822;2023-04-01T01:27:25;99025.22;;;9.89;86.50
76994;BME280;66749;47.406;18.822;2023-04-01T01:30:02;99040.03;;;9.88;86.74
76994;BME280;66749;47.406;18.822;2023-04-01T01:30:43;99030.22;;;9.92;86.04
76994;BME280;66749;47.406;18.822;2023-04-01T01:31:33;99027.59;;;9.92;85.97
76994;BME280;66749;47.406;18.822;2023-04-01T01:33:16;99031.25;;;9.89;86.28
76994;BME280;66749;47.406;18.822;2023-04-01T01:33:58;99030.34;;;9.90;86.03
76994;BME280;66749;47.406;18.822;2023-04-01T01:35:34;99017.06;;;9.93;85.60
76994;BME280;66749;47.406;18.822;2023-04-01T01:36:12;99019.44;;;9.96;86.27
76994;BME280;66749;47.406;18.822;2023-04-01T01:36:48;99023.94;;;9.94;85.83
76994;BME280;66749;47.406;18.822;2023-04-01T01:37:24;99019.66;;;9.93;86.24
76994;BME280;66749;47.406;18.822;2023-04-01T01:38:07;99017.91;;;9.94;85.72
76994;BME280;66749;47.406;18.822;2023-04-01T01:38:40;99023.94;;;9.94;85.87
76994;BME280;66749;47.406;18.822;2023-04-01T01:39:12;99019.78;;;9.92;86.03
76994;BME280;66749;47.406;18.822;2023-04-01T01:39:50;99018.13;;;9.91;85.77
76994;BME280;66749;47.406;18.822;2023-04-01T01:40:25;99020.00;;;9.89;85.72
76994;BME280;66749;47.406;18.822;2023-04-01T01:40:57;99013.97;;;9.88;85.74
76994;BME280;66749;47.406;18.822;2023-04-01T01:41:31;99019.19;;;9.88;85.57
76994;BME280;66749;47.406;18.822;2023-04-01T01:42:06;99017.31;;;9.90;85.64
76994;BME280;66749;47.406;18.822;2023-04-01T01:42:43;99018.22;;;9.89;85.68
76994;BME280;66749;47.406;18.822;2023-04-01T01:43:21;99017.31;;;9.90;85.50
76994;BME280;66749;47.406;18.822;2023-04-01T01:43:54;99018.97;;;9.91;85.39
76994;BME280;66749;47.406;18.822;2023-04-01T01:44:28;99018.13;;;9.91;85.51
76994;BME280;66749;47.406;18.822;2023-04-01T01:45:02;99013.97;;;9.88;85.61
76994;BME280;66749;47.406;18.822;2023-04-01T01:45:39;99021.66;;;9.90;85.49
76994;BME280;66749;47.406;18.822;2023-04-01T01:46:14;99020.84;;;9.89;85.62
76994;BME280;66749;47.406;18.822;2023-04-01T01:46:47;99023.69;;;9.86;85.79
76994;BME280;66749;47.406;18.822;2023-04-01T01:47:19;99008.03;;;9.86;85.56
76994;BME280;66749;47.406;18.822;2023-04-01T01:47:52;99012.31;;;9.87;85.61
76994;BME280;66749;47.406;18.822;2023-04-01T01:48:26;99018.34;;;9.88;85.67
76994;BME280;66749;47.406;18.822;2023-04-01T01:49:00;99013.00;;;9.89;85.36
76994;BME280;66749;47.406;18.822;2023-04-01T01:49:33;99026.03;;;9.89;85.06
76994;BME280;66749;47.406;18.822;2023-04-01T01:50:07;99018.47;;;9.86;85.59
76994;BME280;66749;47.406;18.822;2023-04-01T01:50:40;99022.84;;;9.86;85.92
76994;BME280;66749;47.406;18.822;2023-04-01T01:51:11;99011.72;;;9.84;85.58
76994;BME280;66749;47.406;18.822;2023-04-01T01:51:42;99007.34;;;9.84;85.49
76994;BME280;66749;47.406;18.822;2023-04-01T01:52:13;99011.00;;;9.82;85.79
76994;BME280;66749;47.406;18.822;2023-04-01T01:52:44;99017.16;;;9.81;85.64
76994;BME280;66749;47.406;18.822;2023-04-01T01:53:14;99022.34;;;9.81;85.89
76994;BME280;66749;47.406;18.822;2023-04-01T01:53:45;99012.69;;;9.83;85.95
76994;BME280;66749;47.406;18.822;2023-04-01T01:54:17;99008.38;;;9.82;85.71
76994;BME280;66749;47.406;18.822;2023-04-01T01:54:50;99010.91;;;9.83;85.85
76994;BME280;66749;47.406;18.822;2023-04-01T01:55:47;99012.06;;;9.79;86.23
76994;BME280;66749;47.406;18.822;2023-04-01T01:56:21;99019.88;;;9.79;86.07
76994;BME280;66749;47.406;18.822;2023-04-01T01:57:07;99015.00;;;9.74;86.04
76994;BME280;66749;47.406;18.822;2023-04-01T01:57:39;99008.25;;;9.72;86.43
76994;BME280;66749;47.406;18.822;2023-04-01T01:58:20;98998.19;;;9.67;86.46
76994;BME280;66749;47.406;18.822;2023-04-01T01:58:56;99007.03;;;9.65;86.55
76994;BME280;66749;47.406;18.822;2023-04-01T01:59:29;99014.75;;;9.66;86.88
76994;BME280;66749;47.406;18.822;2023-04-01T02:00:06;99016.19;;;9.70;86.51
76994;BME280;66749;47.406;18.822;2023-04-01T02:00:48;99012.75;;;9.70;86.54
76994;BME280;66749;47.406;18.822;2023-04-01T02:01:24;99000.31;;;9.62;86.64
76994;BME280;66749;47.406;18.822;2023-04-01T02:01:58;99003.25;;;9.58;86.88
76994;BME280;66749;47.406;18.822;2023-04-01T02:02:31;98999.69;;;9.59;87.04
76994;BME280;66749;47.406;18.822;2023-04-01T02:03:04;99003.84;;;9.61;87.08
76994;BME280;66749;47.406;18.822;2023-04-01T02:03:37;99008.94;;;9.63;86.87
76994;BME280;66749;47.406;18.822;2023-04-01T02:04:11;98994.25;;;9.62;87.35
76994;BME280;66749;47.406;18.822;2023-04-01T02:04:45;99002.28;;;9.59;87.06
76994;BME280;66749;47.406;18.822;2023-04-01T02:05:24;98999.69;;;9.59;87.10
76994;BME280;66749;47.406;18.822;2023-04-01T02:05:59;99008.25;;;9.61;87.10
76994;BME280;66749;47.406;18.822;2023-04-01T02:06:34;98999.47;;;9.62;86.75
76994;BME280;66749;47.406;18.822;2023-04-01T02:07:11;99002.66;;;9.65;86.78
76994;BME280;66749;47.406;18.822;2023-04-01T02:07:49;99007.88;;;9.65;86.80
76994;BME280;66749;47.406;18.822;2023-04-01T02:08:29;99006.09;;;9.66;86.91
76994;BME280;66749;47.406;18.822;2023-04-01T02:09:04;99007.75;;;9.67;86.65
76994;BME280;66749;47.406;18.822;2023-04-01T02:09:38;99003.28;;;9.69;86.87
76994;BME280;66749;47.406;18.822;2023-04-01T02:10:08;98996.41;;;9.68;86.39
76994;BME280;66749;47.406;18.822;2023-04-01T02:10:45;99003.28;;;9.69;86.46
76994;BME280;66749;47.406;18.822;2023-04-01T02:11:27;98999.72;;;9.70;86.46
76994;BME280;66749;47.406;18.822;2023-04-01T02:12:04;98998.06;;;9.69;86.18
76994;BME280;66749;47.406;18.822;2023-04-01T02:12:38;99002.22;;;9.71;86.21
76994;BME280;66749;47.406;18.822;2023-04-01T02:13:22;99001.25;;;9.72;86.13
76994;BME280;66749;47.406;18.822;2023-04-01T02:14:05;99000.31;;;9.73;86.12
76994;BME280;66749;47.406;18.822;2023-04-01T02:14:45;99000.69;;;9.69;86.39
76994;BME280;66749;47.406;18.822;2023-04-01T02:15:20;98997.34;;;9.67;86.37
76994;BME280;66749;47.406;18.822;2023-04-01T02:15:54;98991.53;;;9.63;86.27
76994;BME280;66749;47.406;18.822;2023-04-01T02:16:55;98999.22;;;9.65;86.03
76994;BME280;66749;47.406;18.822;2023-04-01T02:17:29;98991.53;;;9.63;86.24
76994;BME280;66749;47.406;18.822;2023-04-01T02:18:02;98986.22;;;9.65;86.12
76994;BME280;66749;47.406;18.822;2023-04-01T02:18:36;98997.34;;;9.67;85.68
76994;BME280;66749;47.406;18.822;2023-04-01T02:19:10;98992.38;;;9.64;85.63
76994;BME280;66749;47.406;18.822;2023-04-01T02:19:56;98992.59;;;9.61;85.94
76994;BME280;66749;47.406;18.822;2023-04-01T02:20:29;98993.44;;;9.61;85.79
76994;BME280;66749;47.406;18.822;2023-04-01T02:21:00;98994.25;;;9.62;85.76
76994;BME280;66749;47.406;18.822;2023-04-01T02:21:32;98995.22;;;9.61;85.84
76994;BME280;66749;47.406;18.822;2023-04-01T02:22:11;98990.94;;;9.60;85.66
76994;BME280;66749;47.406;18.822;2023-04-01T02:22:51;98985.84;;;9.58;85.62
76994;BME280;66749;47.406;18.822;2023-04-01T02:23:22;98995.44;;;9.58;85.83
76994;BME280;66749;47.406;18.822;2023-04-01T02:23:54;98990.22;;;9.58;85.90
76994;BME280;66749;47.406;18.822;2023-04-01T02:24:30;98988.44;;;9.58;85.76
76994;BME280;66749;47.406;18.822;2023-04-01T02:25:10;98990.22;;;9.58;85.38
76994;BME280;66749;47.406;18.822;2023-04-01T02:25:43;98987.63;;;9.58;85.25
76994;BME280;66749;47.406;18.822;2023-04-01T02:26:16;98988.06;;;9.52;85.48
76994;BME280;66749;47.406;18.822;2023-04-01T02:26:47;98991.53;;;9.52;85.54
76994;BME280;66749;47.406;18.822;2023-04-01T02:27:19;98989.84;;;9.51;85.53
76994;BME280;66749;47.406;18.822;2023-04-01T02:27:51;98990.06;;;9.48;85.48
76994;BME280;66749;47.406;18.822;2023-04-01T02:28:23;98983.81;;;9.51;85.29
76994;BME280;66749;47.406;18.822;2023-04-01T02:28:57;98987.47;;;9.48;85.38
76994;BME280;66749;47.406;18.822;2023-04-01T02:29:29;98981.31;;;9.49;85.75
76994;BME280;66749;47.406;18.822;2023-04-01T02:30:00;98979.53;;;9.50;85.53
76994;BME280;66749;47.406;18.822;2023-04-01T02:30:34;98986.53;;;9.49;85.38
76994;BME280;66749;47.406;18.822;2023-04-01T02:31:09;98984.03;;;9.48;85.71
76994;BME280;66749;47.406;18.822;2023-04-01T02:31:42;98982.16;;;9.50;85.77
76994;BME280;66749;47.406;18.822;2023-04-01T02:32:14;98985.47;;;9.52;85.53
76994;BME280;66749;47.406;18.822;2023-04-01T02:32:48;98982.84;;;9.52;85.76
76994;BME280;66749;47.406;18.822;2023-04-01T02:33:20;98985.81;;;9.47;86.00
76994;BME280;66749;47.406;18.822;2023-04-01T02:33:52;98981.31;;;9.49;85.97
76994;BME280;66749;47.406;18.822;2023-04-01T02:34:24;98986.41;;;9.51;86.13
76994;BME280;66749;47.406;18.822;2023-04-01T02:34:57;98978.84;;;9.48;85.81
76994;BME280;66749;47.406;18.822;2023-04-01T02:35:29;98989.47;;;9.44;85.80
76994;BME280;66749;47.406;18.822;2023-04-01T02:36:00;98981.56;;;9.46;85.64
76994;BME280;66749;47.406;18.822;2023-04-01T02:36:31;98984.03;;;9.48;85.69
76994;BME280;66749;47.406;18.822;2023-04-01T02:37:02;98976.22;;;9.48;85.78
76994;BME280;66749;47.406;18.822;2023-04-01T02:37:33;98976.94;;;9.50;85.83
76994;BME280;66749;47.406;18.822;2023-04-01T02:38:05;98983.81;;;9.51;85.56
76994;BME280;66749;47.406;18.822;2023-04-01T02:38:36;98980.25;;;9.52;85.41
76994;BME280;66749;47.406;18.822;2023-04-01T02:39:08;98982.16;;;9.50;85.31
76994;BME280;66749;47.406;18.822;2023-04-01T02:39:39;98978.59;;;9.51;85.55
76994;BME280;66749;47.406;18.822;2023-04-01T02:40:14;98976.09;;;9.49;85.34
76994;BME280;66749;47.406;18.822;2023-04-01T02:40:49;98985.47;;;9.52;85.39
76994;BME280;66749;47.406;18.822;2023-04-01T02:41:20;98977.66;;;9.52;85.54
76994;BME280;66749;47.406;18.822;2023-04-01T02:41:52;98980.16;;;9.53;85.36
76994;BME280;66749;47.406;18.822;2023-04-01T02:42:23;98982.97;;;9.50;85.65
76994;BME280;66749;47.406;18.822;2023-04-01T02:42:53;98984.16;;;9.46;85.63
76994;BME280;66749;47.406;18.822;2023-04-01T02:43:24;98981.66;;;9.44;85.88
76994;BME280;66749;47.406;18.822;2023-04-01T02:43:55;98987.91;;;9.42;85.79
76994;BME280;66749;47.406;18.822;2023-04-01T02:44:27;98983.66;;;9.41;85.57
76994;BME280;66749;47.406;18.822;2023-04-01T02:44:58;98976.56;;;9.43;85.27
76994;BME280;66749;47.406;18.822;2023-04-01T02:45:28;98977.38;;;9.43;85.52
76994;BME280;66749;47.406;18.822;2023-04-01T02:45:59;98979.28;;;9.41;85.56
76994;BME280;66749;47.406;18.822;2023-04-01T02:46:30;98981.75;;;9.43;85.65
76994;BME280;66749;47.406;18.822;2023-04-01T02:47:00;98987.91;;;9.42;85.72
76994;BME280;66749;47.406;18.822;2023-04-01T02:47:31;98986.97;;;9.43;85.43
76994;BME280;66749;47.406;18.822;2023-04-01T02:48:02;98987.81;;;9.43;85.12
76994;BME280;66749;47.406;18.822;2023-04-01T02:48:33;98992.06;;;9.44;84.77
76994;BME280;66749;47.406;18.822;2023-04-01T02:49:04;98987.91;;;9.42;84.50
76994;BME280;66749;47.406;18.822;2023-04-01T02:49:35;98987.81;;;9.43;84.54
76994;BME280;66749;47.406;18.822;2023-04-01T02:50:06;98978.47;;;9.41;84.83
76994;BME280;66749;47.406;18.822;2023-04-01T02:50:38;98981.88;;;9.41;84.58
76994;BME280;66749;47.406;18.822;2023-04-01T02:51:08;98978.56;;;9.39;84.72
76994;BME280;66749;47.406;18.822;2023-04-01T02:51:39;98987.41;;;9.37;85.14
76994;BME280;66749;47.406;18.822;2023-04-01T02:52:10;98990.16;;;9.35;84.85
76994;BME280;66749;47.406;18.822;2023-04-01T02:52:40;98986.81;;;9.33;84.99
76994;BME280;66749;47.406;18.822;2023-04-01T02:53:11;98982.44;;;9.34;85.03
76994;BME280;66749;47.406;18.822;2023-04-01T02:53:42;98980.16;;;9.29;84.84
76994;BME280;66749;47.406;18.822;2023-04-01T02:54:12;98991.44;;;9.30;85.13
76994;BME280;66749;47.406;18.822;2023-04-01T02:54:43;98985.28;;;9.31;85.04
76994;BME280;66749;47.406;18.822;2023-04-01T02:55:13;98989.56;;;9.32;84.64
76994;BME280;66749;47.406;18.822;2023-04-01T02:55:44;98985.75;;;9.25;84.25
76994;BME280;66749;47.406;18.822;2023-04-01T02:56:15;98986.56;;;9.25;84.28
76994;BME280;66749;47.406;18.822;2023-04-01T02:56:46;98992.72;;;9.24;84.32
76994;BME280;66749;47.406;18.822;2023-04-01T02:57:16;98990.31;;;9.21;84.25
76994;BME280;66749;47.406;18.822;2023-04-01T02:57:47;98997.09;;;9.24;83.91
76994;BME280;66749;47.406;18.822;2023-04-01T02:58:18;98996.59;;;9.18;84.07
76994;BME280;66749;47.406;18.822;2023-04-01T02:58:49;98998.03;;;9.23;83.84
76994;BME280;66749;47.406;18.822;2023-04-01T02:59:20;98998.75;;;9.25;84.16
76994;BME280;66749;47.406;18.822;2023-04-01T02:59:51;98991.06;;;9.23;84.45
76994;BME280;66749;47.406;18.822;2023-04-01T03:00:22;98993.88;;;9.20;84.41
76994;BME280;66749;47.406;18.822;2023-04-01T03:00:53;98995.66;;;9.20;84.47
76994;BME280;66749;47.406;18.822;2023-04-01T03:01:23;99001.69;;;9.20;84.21
76994;BME280;66749;47.406;18.822;2023-04-01T03:01:54;99004.41;;;9.18;84.00
76994;BME280;66749;47.406;18.822;2023-04-01T03:02:25;99001.91;;;9.17;84.13
76994;BME280;66749;47.406;18.822;2023-04-01T03:02:56;98996.81;;;9.15;83.94
76994;BME280;66749;47.406;18.822;2023-04-01T03:03:26;98995.25;;;9.13;84.01
76994;BME280;66749;47.406;18.822;2023-04-01T03:03:57;98991.13;;;9.10;84.45
76994;BME280;66749;47.406;18.822;2023-04-01T03:04:28;98999.03;;;9.09;84.62
76994;BME280;66749;47.406;18.822;2023-04-01T03:04:58;98990.53;;;9.07;85.04
76994;BME280;66749;47.406;18.822;2023-04-01T03:05:29;98987.81;;;9.08;84.82
76994;BME280;66749;47.406;18.822;2023-04-01T03:06:06;98987.81;;;9.08;84.83
76994;BME280;66749;47.406;18.822;2023-04-01T03:06:37;98993.84;;;9.09;84.99
76994;BME280;66749;47.406;18.822;2023-04-01T03:07:09;98987.81;;;9.08;84.78
76994;BME280;66749;47.406;18.822;2023-04-01T03:07:40;98990.28;;;9.10;84.68
76994;BME280;66749;47.406;18.822;2023-04-01T03:08:11;98988.84;;;9.06;83.90
76994;BME280;66749;47.406;18.822;2023-04-01T03:08:43;98985.53;;;9.04;83.84
76994;BME280;66749;47.406;18.822;2023-04-01T03:09:14;98980.31;;;9.04;83.90
76994;BME280;66749;47.406;18.822;2023-04-01T03:09:44;98978.78;;;9.01;83.93
76994;BME280;66749;47.406;18.822;2023-04-01T03:10:15;98986.34;;;9.04;84.27
76994;BME280;66749;47.406;18.822;2023-04-01T03:10:46;98980.31;;;9.04;84.48
76994;BME280;66749;47.406;18.822;2023-04-01T03:11:16;98986.47;;;9.03;84.30
76994;BME280;66749;47.406;18.822;2023-04-01T03:11:47;98988.25;;;9.02;84.58
76994;BME280;66749;47.406;18.822;2023-04-01T03:12:17;98989.31;;;9.00;84.70
76994;BME280;66749;47.406;18.822;2023-04-01T03:12:48;98986.69;;;9.00;84.57
76994;BME280;66749;47.406;18.822;2023-04-01T03:13:19;98981.69;;;8.97;84.28
76994;BME280;66749;47.406;18.822;2023-04-01T03:13:49;98985.97;;;8.98;84.51
76994;BME280;66749;47.406;18.822;2023-04-01T03:14:20;98991.16;;;8.98;84.30
76994;BME280;66749;47.406;18.822;2023-04-01T03:14:51;98988.56;;;8.98;84.33
76994;BME280;66749;47.406;18.822;2023-04-01T03:15:21;98984.19;;;8.98;84.37